Time;durP1;ratioP1;P1;durP2;ratioP2;P2;SDS_P1;SDS_P2;PMS_P1;PMS_P2;Temp;Humidity;BMP_temperature;BMP_pressure;BME280_temperature;BME280_humidity;BME280_pressure;Samples;Min_cycle;Max_cycle;Signal;HPM_P1;HPM_P2
2022/10/17 00:00:40;;;;;;;7.92;4.75;;;;;;;6.80;71.66;99300.14;1789280;80;20959;-56
2022/10/17 00:03:07;;;;;;;7.03;4.62;;;;;;;6.79;71.65;99303.83;1777174;80;20991;-56
2022/10/17 00:05:42;;;;;;;12.20;4.53;;;;;;;6.80;71.62;99304.13;1781106;80;20994;-56
2022/10/17 00:08:10;;;;;;;8.88;4.28;;;;;;;6.84;71.59;99305.27;1777049;80;21257;-56
2022/10/17 00:10:38;;;;;;;7.15;4.37;;;;;;;6.86;71.67;99305.84;1779986;79;20984;-56
2022/10/17 00:13:05;;;;;;;9.13;4.50;;;;;;;6.87;71.77;99310.14;1780993;80;21448;-56
2022/10/17 00:15:34;;;;;;;6.42;4.12;;;;;;;6.90;71.68;99309.65;1748645;81;20943;-56
2022/10/17 00:18:02;;;;;;;7.65;3.90;;;;;;;6.89;71.65;99304.05;1750205;80;21467;-56
2022/10/17 00:20:31;;;;;;;7.83;4.33;;;;;;;6.89;71.58;99302.72;1752399;80;21721;-57
2022/10/17 00:23:00;;;;;;;5.97;4.00;;;;;;;6.90;71.54;99304.33;1781639;80;20915;-57
2022/10/17 00:25:28;;;;;;;11.03;4.28;;;;;;;6.90;71.43;99309.65;1751618;81;20935;-56
2022/10/17 00:27:54;;;;;;;8.95;4.35;;;;;;;6.92;71.32;99308.62;1748319;81;21055;-56
2022/10/17 00:30:22;;;;;;;9.48;4.28;;;;;;;6.89;71.31;99308.05;1785430;80;20932;-57
2022/10/17 00:32:50;;;;;;;9.38;4.00;;;;;;;6.87;71.29;99310.14;1778513;80;21049;-57
2022/10/17 00:35:19;;;;;;;11.12;4.25;;;;;;;6.87;71.28;99310.14;1782558;80;21010;-57
2022/10/17 00:37:46;;;;;;;6.67;3.95;;;;;;;6.87;71.29;99304.81;1776726;80;20943;-57
2022/10/17 00:40:13;;;;;;;5.92;3.87;;;;;;;6.85;71.31;99303.42;1787886;79;20900;-57
2022/10/17 00:42:42;;;;;;;9.33;4.30;;;;;;;6.84;71.37;99304.45;1776709;80;20994;-58
2022/10/17 00:45:20;;;;;;;8.20;3.72;;;;;;;6.81;71.37;99310.24;1774997;80;21229;-56
2022/10/17 00:47:52;;;;;;;6.08;3.50;;;;;;;6.81;71.49;99306.25;1780447;80;21566;-56
2022/10/17 00:50:19;;;;;;;9.40;3.58;;;;;;;6.81;71.52;99300.41;1779937;80;21039;-56
2022/10/17 00:52:46;;;;;;;9.38;3.70;;;;;;;6.82;71.57;99304.70;1779586;79;20856;-57
2022/10/17 00:55:17;;;;;;;8.43;4.55;;;;;;;6.83;71.53;99303.64;1756121;80;21010;-55
2022/10/17 00:57:44;;;;;;;7.58;4.47;;;;;;;6.84;71.73;99307.94;1782166;79;21239;-56
2022/10/17 01:00:13;;;;;;;7.83;4.22;;;;;;;6.83;71.74;99308.16;1782798;79;21010;-56
2022/10/17 01:02:41;;;;;;;8.30;4.30;;;;;;;6.82;71.74;99303.38;1779891;80;20916;-56
2022/10/17 01:05:08;;;;;;;7.75;3.75;;;;;;;6.77;71.99;99305.11;1787520;80;21069;-56
2022/10/17 01:07:37;;;;;;;6.00;4.22;;;;;;;6.71;72.29;99309.50;1785328;80;20896;-56
2022/10/17 01:10:07;;;;;;;7.83;4.42;;;;;;;6.66;72.42;99296.62;1748481;81;20928;-56
2022/10/17 01:13:01;;;;;;;7.10;3.80;;;;;;;6.60;72.54;99292.21;1778031;80;20880;-56
2022/10/17 01:15:55;;;;;;;5.28;3.98;;;;;;;6.57;72.65;99290.82;1748351;80;20876;-55
2022/10/17 01:19:04;;;;;;;10.55;3.98;;;;;;;6.55;72.70;99291.58;1782671;80;21491;-55
2022/10/17 01:21:48;;;;;;;9.43;3.83;;;;;;;6.54;72.87;99287.83;1786156;80;20887;-55
2022/10/17 01:24:29;;;;;;;;;;;;;;;6.54;73.03;99293.97;1755270;80;21224;-56
2022/10/17 01:27:24;;;;;;;6.15;3.90;;;;;;;6.55;72.95;99294.24;1749534;80;20105;-56
2022/10/17 01:30:10;;;;;;;5.35;3.60;;;;;;;6.54;72.88;99293.97;1785299;80;20959;-56
2022/10/17 01:33:07;;;;;;;8.43;4.33;;;;;;;6.56;72.85;99293.21;1777901;80;21391;-56
2022/10/17 01:36:00;;;;;;;6.87;4.33;;;;;;;6.56;72.89;99295.05;1788107;80;20990;-55
2022/10/17 01:38:34;;;;;;;6.25;3.75;;;;;;;6.55;72.90;99298.23;1786496;79;21125;-56
2022/10/17 01:41:17;;;;;;;6.37;4.30;;;;;;;6.51;72.99;99297.09;1749418;80;20880;-56
2022/10/17 01:43:50;;;;;;;6.53;4.25;;;;;;;6.48;73.05;99301.53;1789248;80;21018;-56
2022/10/17 01:46:31;;;;;;;7.60;4.20;;;;;;;6.46;73.19;99296.16;1781618;79;20927;-56
2022/10/17 01:48:59;;;;;;;8.65;4.20;;;;;;;6.45;73.19;99299.87;1756186;81;20959;-56
2022/10/17 01:51:45;;;;;;;7.03;4.30;;;;;;;6.46;73.20;99294.82;1779868;80;21167;-56
2022/10/17 01:54:35;;;;;;;8.45;4.22;;;;;;;6.45;73.23;99292.70;1775737;80;21074;-55
2022/10/17 01:57:08;;;;;;;8.63;3.90;;;;;;;6.47;73.27;99286.63;1783798;79;20904;-55
2022/10/17 01:59:43;;;;;;;6.55;3.65;;;;;;;6.50;73.23;99284.81;1783133;80;20876;-55
2022/10/17 02:02:10;;;;;;;6.65;3.72;;;;;;;6.52;73.15;99275.28;1782259;79;27298;-56
2022/10/17 02:04:37;;;;;;;11.30;3.70;;;;;;;6.53;73.08;99272.38;1778562;80;21387;-56
2022/10/17 02:07:11;;;;;;;7.85;3.83;;;;;;;6.53;72.98;99273.70;1785411;80;21468;-56
2022/10/17 02:09:39;;;;;;;5.70;3.95;;;;;;;6.53;72.98;99265.72;1785953;79;20923;-56
2022/10/17 02:12:56;;;;;;;5.30;3.90;;;;;;;6.52;73.00;99276.61;1777308;80;21377;-56
2022/10/17 02:15:40;;;;;;;5.55;4.05;;;;;;;6.51;72.95;99270.47;1781717;79;20923;-54
2022/10/17 02:18:12;;;;;;;8.20;4.20;;;;;;;6.50;72.95;99273.38;1749915;80;21130;-56
2022/10/17 02:21:02;;;;;;;5.83;3.47;;;;;;;6.48;72.92;99273.59;1786737;80;20895;-56
2022/10/17 02:23:41;;;;;;;5.92;3.50;;;;;;;6.48;72.96;99277.58;1748389;81;20923;-55
2022/10/17 02:26:20;;;;;;;8.70;3.98;;;;;;;6.49;72.97;99284.53;1750998;80;21549;-55
2022/10/17 02:29:11;;;;;;;6.55;3.80;;;;;;;6.52;72.96;99289.41;1750294;80;20879;-56
2022/10/17 02:32:06;;;;;;;6.72;4.03;;;;;;;6.53;72.97;99295.00;1776512;79;21117;-56
2022/10/17 02:34:40;;;;;;;6.65;4.37;;;;;;;6.52;72.98;99298.72;1784029;79;21521;-56
2022/10/17 02:37:08;;;;;;;6.37;3.70;;;;;;;6.51;73.01;99306.41;1785138;80;20923;-56
2022/10/17 02:39:35;;;;;;;7.75;4.10;;;;;;;6.50;73.14;99307.98;1777063;80;20924;-56
2022/10/17 02:42:04;;;;;;;9.05;4.60;;;;;;;6.47;73.24;99304.44;1788340;80;21455;-56
2022/10/17 02:44:31;;;;;;;9.55;5.22;;;;;;;6.41;73.37;99299.52;1787094;79;21180;-56
2022/10/17 02:47:12;;;;;;;10.15;5.65;;;;;;;6.34;73.60;99296.16;1786054;80;21403;-56
2022/10/17 02:49:40;;;;;;;11.08;5.67;;;;;;;6.28;73.91;99296.28;1784138;80;20999;-56
2022/10/17 02:52:14;;;;;;;10.90;5.50;;;;;;;6.21;74.16;99297.73;1752096;81;21412;-56
2022/10/17 02:54:59;;;;;;;10.00;5.62;;;;;;;6.16;74.47;99308.24;1730638;81;21026;-56
2022/10/17 02:57:51;;;;;;;10.38;5.22;;;;;;;6.13;74.72;99305.52;1732863;80;21919;-56
2022/10/17 03:00:18;;;;;;;8.08;4.80;;;;;;;6.13;74.88;99292.73;1750208;80;21066;-56
2022/10/17 03:02:49;;;;;;;8.40;5.35;;;;;;;6.10;75.03;99299.31;1784008;79;20960;-55
2022/10/17 03:05:21;;;;;;;8.48;5.47;;;;;;;6.11;75.13;99313.44;1759915;80;21547;-56
2022/10/17 03:07:48;;;;;;;12.33;5.33;;;;;;;6.08;75.24;99316.55;1779934;80;21427;-56
2022/10/17 03:10:15;;;;;;;8.73;5.22;;;;;;;6.05;75.43;99322.34;1782746;79;21096;-56
2022/10/17 03:12:42;;;;;;;6.03;5.00;;;;;;;6.03;75.64;99323.09;1780039;80;21399;-56
2022/10/17 03:15:12;;;;;;;9.08;4.80;;;;;;;5.99;75.80;99320.06;1776491;79;21400;-56
2022/10/17 03:17:42;;;;;;;9.08;5.10;;;;;;;5.96;75.94;99314.37;1736333;80;20994;-56
2022/10/17 03:20:10;;;;;;;10.00;4.40;;;;;;;5.91;76.07;99303.09;1749813;81;21006;-61
2022/10/17 03:22:37;;;;;;;9.70;4.10;;;;;;;5.90;76.31;99299.34;1784314;79;21229;-55
2022/10/17 03:25:06;;;;;;;8.00;4.72;;;;;;;5.90;76.64;99309.48;1789327;79;21058;-56
2022/10/17 03:27:34;;;;;;;7.33;4.83;;;;;;;5.93;76.85;99309.55;1786094;80;20928;-56
2022/10/17 03:30:01;;;;;;;6.83;4.53;;;;;;;5.97;77.06;99307.52;1777807;79;21412;-56
2022/10/17 03:32:29;;;;;;;8.55;4.40;;;;;;;5.96;77.04;99310.39;1749191;81;21027;-56
2022/10/17 03:34:55;;;;;;;5.25;3.90;;;;;;;5.93;77.15;99310.88;1732660;81;21423;-56
2022/10/17 03:37:22;;;;;;;8.48;4.28;;;;;;;5.91;77.22;99320.39;1749016;81;20951;-55
2022/10/17 03:39:49;;;;;;;6.30;4.20;;;;;;;5.87;77.33;99323.22;1783339;80;20896;-56
2022/10/17 03:42:16;;;;;;;8.23;4.25;;;;;;;5.87;77.38;99319.74;1782238;79;20963;-56
2022/10/17 03:44:43;;;;;;;9.43;4.35;;;;;;;5.84;77.48;99316.20;1750298;80;20900;-56
2022/10/17 03:47:10;;;;;;;7.45;4.35;;;;;;;5.81;77.56;99318.79;1785736;79;21240;-56
2022/10/17 03:49:38;;;;;;;8.28;4.17;;;;;;;5.84;77.78;99318.34;1782858;80;21051;-55
2022/10/17 03:52:05;;;;;;;8.40;4.75;;;;;;;5.85;77.95;99327.95;1756515;81;21006;-56
2022/10/17 03:54:32;;;;;;;10.28;5.25;;;;;;;5.86;78.08;99332.77;1755347;81;20951;-56
2022/10/17 03:56:59;;;;;;;7.20;4.85;;;;;;;5.87;78.16;99333.04;1782565;79;20896;-56
2022/10/17 03:59:26;;;;;;;9.75;5.30;;;;;;;5.90;78.21;99337.91;1751743;80;21129;-56
2022/10/17 04:01:57;;;;;;;8.28;4.95;;;;;;;5.92;78.19;99343.80;1782461;80;21364;-56
2022/10/17 04:04:26;;;;;;;8.95;4.97;;;;;;;5.92;77.98;99333.17;1783048;79;20887;-56
2022/10/17 04:06:52;;;;;;;7.85;4.80;;;;;;;5.90;77.89;99333.92;1775844;80;21014;-56
2022/10/17 04:09:19;;;;;;;9.98;5.10;;;;;;;5.86;77.83;99334.09;1785748;80;20923;-56
2022/10/17 04:11:47;;;;;;;10.43;5.50;;;;;;;5.84;77.82;99336.14;1775797;80;21463;-55
2022/10/17 04:14:14;;;;;;;12.45;6.42;;;;;;;5.77;77.88;99334.09;1778483;80;20848;-57
2022/10/17 04:16:41;;;;;;;9.98;6.50;;;;;;;5.71;78.10;99333.66;1774650;80;21433;-57
2022/10/17 04:19:12;;;;;;;9.95;5.87;;;;;;;5.68;78.28;99332.77;1777711;80;21009;-55
2022/10/17 04:21:41;;;;;;;15.23;10.08;;;;;;;5.70;78.49;99338.70;1784271;79;20891;-55
2022/10/17 04:24:10;;;;;;;25.97;16.93;;;;;;;5.68;78.56;99335.43;1752277;81;21113;-55
2022/10/17 04:26:51;;;;;;;23.60;16.50;;;;;;;5.69;78.61;99333.08;1759192;80;20879;-55
2022/10/17 04:29:20;;;;;;;19.77;17.35;;;;;;;5.70;78.69;99329.39;1749349;80;20931;-55
2022/10/17 04:31:50;;;;;;;18.65;11.97;;;;;;;5.68;78.77;99330.11;1750063;80;20963;-56
2022/10/17 04:34:19;;;;;;;15.23;11.65;;;;;;;5.67;78.80;99325.34;1782700;79;20999;-56
2022/10/17 04:36:46;;;;;;;17.10;11.05;;;;;;;5.66;78.86;99324.22;1726190;81;21565;-57
2022/10/17 04:39:13;;;;;;;14.43;11.35;;;;;;;5.62;78.92;99327.05;1750583;81;20919;-57
2022/10/17 04:41:40;;;;;;;11.20;9.35;;;;;;;5.60;78.98;99335.77;1783079;80;20952;-57
2022/10/17 04:44:09;;;;;;;12.90;8.35;;;;;;;5.60;79.07;99349.05;1778078;80;20895;-57
2022/10/17 04:46:38;;;;;;;11.93;8.95;;;;;;;5.60;79.21;99350.38;1775755;80;20875;-57
2022/10/17 04:49:05;;;;;;;12.93;9.50;;;;;;;5.62;79.30;99354.95;1779468;80;21117;-57
2022/10/17 04:51:32;;;;;;;24.87;14.33;;;;;;;5.65;79.54;99358.50;1777957;80;20967;-57
2022/10/17 04:54:13;;;;;;;27.65;16.57;;;;;;;5.70;79.54;99359.97;1750172;81;21453;-55
2022/10/17 04:56:42;;;;;;;27.55;16.57;;;;;;;5.73;79.47;99357.65;1752599;80;20867;-57
2022/10/17 04:59:09;;;;;;;32.25;17.80;;;;;;;5.76;79.54;99364.37;1750638;80;21412;-57
2022/10/17 05:01:37;;;;;;;24.72;17.45;;;;;;;5.80;79.74;99369.00;1751126;80;21218;-57
2022/10/17 05:04:04;;;;;;;19.60;11.28;;;;;;;5.84;79.64;99378.17;1785678;79;21062;-56
2022/10/17 05:06:32;;;;;;;15.40;8.73;;;;;;;5.88;79.38;99379.88;1778581;80;21099;-56
2022/10/17 05:09:03;;;;;;;10.08;6.40;;;;;;;5.83;79.30;99377.87;1756699;80;21377;-56
2022/10/17 05:11:30;;;;;;;11.03;6.42;;;;;;;5.80;79.31;99377.49;1786031;79;20876;-56
2022/10/17 05:14:00;;;;;;;12.35;7.05;;;;;;;5.80;79.33;99379.64;1748382;81;21286;-58
2022/10/17 05:16:27;;;;;;;21.48;11.08;;;;;;;5.81;79.47;99378.62;1761368;80;21113;-56
2022/10/17 05:18:57;;;;;;;11.70;8.50;;;;;;;5.84;79.55;99388.81;1758522;80;21076;-56
2022/10/17 05:21:28;;;;;;;29.65;24.67;;;;;;;5.92;79.57;99393.01;1782062;79;21437;-56
2022/10/17 05:23:56;;;;;;;16.70;9.20;;;;;;;5.99;79.50;99403.03;1792941;80;20881;-56
2022/10/17 05:26:22;;;;;;;15.60;6.87;;;;;;;6.04;79.42;99403.17;1759723;81;21208;-56
2022/10/17 05:28:53;;;;;;;11.35;7.37;;;;;;;6.10;79.28;99403.61;1787823;79;20885;-56
2022/10/17 05:31:21;;;;;;;15.08;7.15;;;;;;;6.16;79.18;99400.84;1792083;79;20873;-56
2022/10/17 05:33:48;;;;;;;16.93;8.60;;;;;;;6.19;79.13;99401.70;1755520;80;21396;-56
2022/10/17 05:36:15;;;;;;;15.38;7.08;;;;;;;6.24;79.11;99405.03;1791871;79;20940;-56
2022/10/17 05:38:43;;;;;;;15.13;7.85;;;;;;;6.29;78.99;99407.80;1723456;79;21403;-57
2022/10/17 05:41:11;;;;;;;20.20;13.30;;;;;;;6.34;78.84;99409.77;1773917;79;21397;-57
2022/10/17 05:43:40;;;;;;;40.03;26.25;;;;;;;6.39;78.85;99416.03;1771421;80;21484;-55
2022/10/17 05:46:07;;;;;;;29.52;17.10;;;;;;;6.47;78.74;99424.22;1795156;79;20869;-55
2022/10/17 05:48:34;;;;;;;21.05;11.93;;;;;;;6.57;78.56;99423.92;1793919;79;20964;-55
2022/10/17 05:51:06;;;;;;;18.50;11.18;;;;;;;6.66;78.21;99426.56;1778539;79;21111;-55
2022/10/17 05:53:37;;;;;;;16.48;7.45;;;;;;;6.74;78.05;99423.55;1757298;80;20998;-56
2022/10/17 05:56:08;;;;;;;15.58;7.70;;;;;;;6.84;77.78;99417.13;1760527;80;21012;-56
2022/10/17 05:58:35;;;;;;;20.57;8.53;;;;;;;6.94;77.66;99421.06;1752571;79;21528;-55
2022/10/17 06:01:04;;;;;;;22.35;6.53;;;;;;;7.03;77.50;99424.99;1790647;79;21022;-55
2022/10/17 06:03:32;;;;;;;21.87;10.78;;;;;;;7.13;77.24;99430.56;1793169;79;21800;-55
2022/10/17 06:06:07;;;;;;;11.12;7.12;;;;;;;7.19;77.01;99435.76;1766560;79;20885;-55
2022/10/17 06:08:35;;;;;;;13.68;6.60;;;;;;;7.28;76.79;99434.87;1765695;80;21546;-56
2022/10/17 06:11:03;;;;;;;12.23;5.65;;;;;;;7.40;76.46;99437.81;1760693;80;20999;-57
2022/10/17 06:13:31;;;;;;;9.70;6.00;;;;;;;7.52;76.24;99441.27;1778790;78;21528;-57
2022/10/17 06:16:00;;;;;;;10.98;5.67;;;;;;;7.66;75.71;99441.81;1784938;79;21110;-58
2022/10/17 06:18:28;;;;;;;14.23;6.12;;;;;;;7.78;75.34;99433.77;1733857;80;21123;-57
2022/10/17 06:21:08;;;;;;;9.10;6.87;;;;;;;7.92;74.97;99438.59;1741034;79;21073;-56
2022/10/17 06:23:37;;;;;;;19.00;6.25;;;;;;;8.04;74.64;99443.37;1720370;80;20963;-58
2022/10/17 06:26:22;;;;;;;13.55;7.10;;;;;;;8.14;74.15;99443.56;1747608;81;20872;-57
2022/10/17 06:28:50;;;;;;;10.80;7.05;;;;;;;8.25;73.88;99454.70;1784118;79;21206;-56
2022/10/17 06:33:56;;;;;;;10.63;6.95;;;;;;;8.46;73.04;99448.40;1741677;81;22108;-56
2022/10/17 06:36:24;;;;;;;13.55;6.62;;;;;;;8.56;72.77;99452.06;1770096;79;21630;-56
2022/10/17 06:38:51;;;;;;;14.00;7.15;;;;;;;8.64;72.46;99454.87;1768225;80;21138;-56
2022/10/17 06:41:19;;;;;;;12.33;6.62;;;;;;;8.75;72.48;99453.97;1768181;80;21298;-56
2022/10/17 06:43:47;;;;;;;12.33;6.00;;;;;;;8.87;72.37;99459.52;1761663;79;20958;-58
2022/10/17 06:46:25;;;;;;;15.15;5.87;;;;;;;8.98;72.21;99463.15;1757096;79;20983;-58
2022/10/17 06:48:57;;;;;;;9.30;5.97;;;;;;;9.11;71.82;99456.14;1747408;80;21110;-59
2022/10/17 06:51:25;;;;;;;14.45;5.83;;;;;;;9.24;71.55;99463.80;1768476;79;21088;-62
2022/10/17 06:53:55;;;;;;;11.22;5.83;;;;;;;9.38;71.36;99457.05;1790236;79;21254;-61
2022/10/17 06:56:41;;;;;;;10.68;5.83;;;;;;;9.53;70.90;99455.11;1744656;79;21001;-58
2022/10/17 06:59:10;;;;;;;14.35;5.30;;;;;;;9.69;70.57;99454.77;1793777;79;21000;-59
2022/10/17 07:01:40;;;;;;;8.23;4.72;;;;;;;9.82;70.62;99457.87;1790066;79;20935;-60
2022/10/17 07:04:07;;;;;;;12.23;5.67;;;;;;;9.98;70.26;99461.55;1741430;80;21010;-60
2022/10/17 07:06:34;;;;;;;12.73;5.40;;;;;;;10.10;69.85;99456.87;1752518;80;21108;-59
2022/10/17 07:09:05;;;;;;;12.05;5.45;;;;;;;10.22;69.64;99458.35;1756672;80;21444;-58
2022/10/17 07:11:34;;;;;;;8.00;5.53;;;;;;;10.33;69.47;99449.91;1755446;80;20975;-58
2022/10/17 07:14:02;;;;;;;13.05;5.83;;;;;;;10.44;69.07;99455.62;1760183;80;21039;-58
2022/10/17 07:16:30;;;;;;;13.43;5.15;;;;;;;10.55;68.88;99446.61;1768718;80;21067;-59
2022/10/17 07:19:08;;;;;;;13.95;6.33;;;;;;;10.66;68.50;99448.86;1755326;80;21283;-58
2022/10/17 07:21:37;;;;;;;10.80;6.10;;;;;;;10.73;68.18;99450.27;1760460;80;21585;-58
2022/10/17 07:24:08;;;;;;;9.00;5.37;;;;;;;10.83;68.23;99444.18;1741943;79;21076;-59
2022/10/17 07:26:36;;;;;;;10.28;6.37;;;;;;;10.95;68.02;99440.79;1741425;79;21079;-59
2022/10/17 07:29:06;;;;;;;10.88;6.08;;;;;;;11.04;67.80;99439.23;1726720;80;21122;-59
2022/10/17 07:31:41;;;;;;;9.93;5.60;;;;;;;11.15;67.67;99434.73;1736778;80;21061;-60
2022/10/17 07:34:12;;;;;;;9.20;5.55;;;;;;;11.26;67.38;99435.09;1710272;81;21001;-59
2022/10/17 07:36:38;;;;;;;11.60;5.10;;;;;;;11.37;67.23;99439.44;1720438;81;21106;-58
2022/10/17 07:39:07;;;;;;;15.70;5.33;;;;;;;11.48;67.05;99455.84;1726437;81;21083;-58
2022/10/17 07:41:35;;;;;;;11.60;5.37;;;;;;;11.59;67.15;99464.21;1738043;81;21067;-59
2022/10/17 07:44:04;;;;;;;12.05;6.90;;;;;;;11.70;66.81;99471.30;1742423;82;21733;-58
2022/10/17 07:46:34;;;;;;;10.10;6.65;;;;;;;11.83;66.81;99474.83;1716910;81;20971;-58
2022/10/17 07:49:01;;;;;;;14.47;6.08;;;;;;;11.98;67.19;99484.83;1737243;81;20956;-59
2022/10/17 07:51:28;;;;;;;13.22;5.72;;;;;;;12.12;66.98;99481.92;1762329;81;21549;-58
2022/10/17 07:53:55;;;;;;;9.05;5.30;;;;;;;12.27;66.62;99483.32;1753111;81;20988;-57
2022/10/17 07:56:23;;;;;;;10.30;5.78;;;;;;;12.40;66.34;99476.08;1746537;80;21121;-59
2022/10/17 07:58:52;;;;;;;8.15;5.40;;;;;;;12.54;65.80;99465.61;1753356;81;20910;-61
2022/10/17 08:01:19;;;;;;;11.60;5.30;;;;;;;12.68;65.35;99469.39;1734315;81;20984;-60
2022/10/17 08:03:50;;;;;;;7.70;5.10;;;;;;;12.81;65.27;99474.25;1753301;81;20933;-60
2022/10/17 08:06:16;;;;;;;8.73;5.30;;;;;;;12.93;64.74;99473.45;1770711;79;20934;-60
2022/10/17 08:08:43;;;;;;;9.43;5.42;;;;;;;13.03;64.62;99476.92;1724924;81;21245;-60
2022/10/17 08:11:12;;;;;;;9.80;5.10;;;;;;;13.16;64.49;99480.98;1792202;79;21093;-60
2022/10/17 08:13:39;;;;;;;14.83;5.60;;;;;;;13.27;64.10;99485.27;1784959;79;21133;-59
2022/10/17 08:16:09;;;;;;;12.70;5.30;;;;;;;13.40;63.88;99484.69;1791574;79;20948;-60
2022/10/17 08:18:40;;;;;;;11.45;5.25;;;;;;;13.52;63.57;99482.52;1786665;79;21002;-60
2022/10/17 08:21:07;;;;;;;12.45;5.10;;;;;;;13.65;63.18;99481.14;1769706;79;21704;-58
2022/10/17 08:23:34;;;;;;;8.03;4.87;;;;;;;13.78;63.05;99483.81;1769707;79;20952;-58
2022/10/17 08:26:02;;;;;;;10.95;4.95;;;;;;;13.89;63.08;99481.33;1771119;79;21015;-59
2022/10/17 08:28:33;;;;;;;10.70;4.70;;;;;;;14.03;62.92;99476.96;1771772;80;21408;-59
2022/10/17 08:31:09;;;;;;;10.93;5.25;;;;;;;14.18;62.57;99479.03;1747969;80;21219;-59
2022/10/17 08:33:36;;;;;;;7.65;5.28;;;;;;;14.32;61.89;99483.28;1756737;80;21468;-58
2022/10/17 08:36:04;;;;;;;9.40;5.08;;;;;;;14.46;61.74;99468.67;1769475;79;20972;-58
2022/10/17 08:38:32;;;;;;;9.80;5.10;;;;;;;14.55;61.41;99471.84;1769276;80;21105;-61
2022/10/17 08:41:06;;;;;;;8.90;5.45;;;;;;;14.64;61.12;99472.86;1768529;80;21004;-60
2022/10/17 08:44:17;;;;;;;8.03;4.70;;;;;;;14.72;60.91;99488.42;1755900;80;20969;-60
2022/10/17 08:46:46;;;;;;;7.65;4.72;;;;;;;14.80;61.01;99479.73;1760477;81;21140;-59
2022/10/17 08:49:51;;;;;;;14.18;5.40;;;;;;;14.91;60.98;99473.70;1771789;79;21068;-59
2022/10/17 08:53:14;;;;;;;9.73;5.08;;;;;;;15.01;60.59;99474.44;1757352;81;21079;-57
2022/10/17 08:58:56;;;;;;;9.35;5.47;;;;;;;15.31;60.24;99467.94;1793724;79;21542;-59
2022/10/17 09:01:37;;;;;;;9.53;5.22;;;;;;;15.46;60.43;99470.53;1727295;79;21118;-59
2022/10/17 09:05:00;;;;;;;10.13;5.55;;;;;;;15.57;59.74;99467.16;1752379;80;20985;-58
2022/10/17 09:07:45;;;;;;;11.55;5.03;;;;;;;15.69;59.93;99466.21;1787241;79;21719;-58
2022/10/17 09:10:45;;;;;;;9.95;5.17;;;;;;;15.83;59.30;99465.78;1771574;79;20939;-61
2022/10/17 09:14:09;;;;;;;9.05;5.20;;;;;;;15.95;59.41;99476.98;1782135;79;21655;-58
2022/10/17 09:17:01;;;;;;;10.60;5.15;;;;;;;16.04;58.49;99481.22;1758402;80;21308;-59
2022/10/17 09:19:43;;;;;;;7.42;5.12;;;;;;;16.10;58.33;99479.50;1761910;80;21081;-59
2022/10/17 09:22:19;;;;;;;12.35;5.12;;;;;;;16.19;58.50;99484.52;1767869;79;40615;-62
2022/10/17 09:24:54;;;;;;;9.10;5.30;;;;;;;16.29;58.81;99493.84;1731083;82;21009;-58
2022/10/17 09:27:44;;;;;;;9.35;4.70;;;;;;;16.36;58.54;99486.72;1776791;79;21018;-57
2022/10/17 09:30:38;;;;;;;6.47;4.90;;;;;;;16.43;58.84;99482.56;1771712;79;21111;-58
2022/10/17 09:33:18;;;;;;;;;;;;;;;16.54;58.25;99477.83;1792827;79;21440;-59
2022/10/17 09:35:45;;;;;;;11.12;5.78;;;;;;;16.67;58.16;99476.30;1758418;80;20490;-59
2022/10/17 09:38:19;;;;;;;14.55;5.60;;;;;;;16.77;57.80;99486.97;1705683;80;21098;-62
2022/10/17 09:40:58;;;;;;;8.95;5.47;;;;;;;16.85;57.69;99482.22;1755073;79;20972;-60
2022/10/17 09:43:25;;;;;;;8.95;5.10;;;;;;;16.94;57.11;99476.38;1791611;79;21187;-63
2022/10/17 09:46:15;;;;;;;9.18;5.50;;;;;;;17.02;57.46;99475.18;1786638;78;21646;-58
2022/10/17 09:48:55;;;;;;;7.67;5.50;;;;;;;17.13;57.27;99470.38;1777242;79;21070;-58
2022/10/17 09:51:21;;;;;;;12.58;7.30;;;;;;;17.25;56.92;99474.77;1796190;79;21014;-58
2022/10/17 09:53:53;;;;;;;14.78;7.08;;;;;;;17.31;56.54;99483.05;1795031;78;21049;-67
2022/10/17 09:56:20;;;;;;;13.58;7.53;;;;;;;17.37;57.19;99483.77;1780123;79;21432;-57
2022/10/17 09:58:54;;;;;;;10.50;6.37;;;;;;;17.45;56.85;99480.38;1761277;79;21150;-60
2022/10/17 10:01:30;;;;;;;13.00;6.12;;;;;;;17.51;56.64;99479.17;1738498;81;20964;-60
2022/10/17 10:04:13;;;;;;;9.88;6.25;;;;;;;17.57;56.98;99473.38;1744856;80;21010;-59
2022/10/17 10:07:05;;;;;;;10.40;6.40;;;;;;;17.65;56.63;99471.89;1770568;80;21083;-60
2022/10/17 10:09:33;;;;;;;12.78;6.35;;;;;;;17.71;56.34;99470.70;1773425;80;21231;-58
2022/10/17 10:12:04;;;;;;;11.80;6.83;;;;;;;17.76;55.87;99482.23;1709719;80;21182;-59
2022/10/17 10:14:35;;;;;;;14.53;6.47;;;;;;;17.78;55.79;99480.02;1740396;80;21002;-62
2022/10/17 10:17:07;;;;;;;15.38;6.33;;;;;;;17.84;55.84;99479.91;1733583;82;21499;-59
2022/10/17 10:19:37;;;;;;;15.30;8.85;;;;;;;17.90;56.39;99478.15;1757224;81;20998;-58
2022/10/17 10:22:07;;;;;;;15.65;9.20;;;;;;;17.98;55.96;99477.45;1746973;80;21107;-59
2022/10/17 10:24:34;;;;;;;21.62;14.95;;;;;;;18.05;55.85;99477.05;1744669;80;21471;-58
2022/10/17 10:27:02;;;;;;;13.32;8.58;;;;;;;18.11;55.68;99477.20;1794686;79;21004;-57
2022/10/17 10:29:39;;;;;;;9.28;6.15;;;;;;;18.19;55.61;99477.83;1786931;79;21019;-59
2022/10/17 10:32:13;;;;;;;7.62;5.90;;;;;;;18.23;54.90;99473.42;1788439;79;21505;-58
2022/10/17 10:35:00;;;;;;;15.18;6.67;;;;;;;18.22;55.01;99473.16;1758495;80;21123;-59
2022/10/17 10:37:39;;;;;;;9.05;6.47;;;;;;;18.24;54.79;99484.50;1749518;79;20989;-58
2022/10/17 10:40:25;;;;;;;15.95;7.15;;;;;;;18.23;55.31;99476.91;1780133;79;20941;-59
2022/10/17 10:42:55;;;;;;;11.25;7.50;;;;;;;18.26;55.27;99476.31;1711209;83;21198;-59
2022/10/17 10:45:38;;;;;;;14.78;8.70;;;;;;;18.29;54.59;99478.97;1748868;80;21040;-65
2022/10/17 10:48:31;;;;;;;11.20;7.40;;;;;;;18.27;54.80;99467.63;1788424;79;21221;-59
2022/10/17 10:51:16;;;;;;;14.33;7.03;;;;;;;18.33;55.50;99471.82;1782936;78;20959;-60
2022/10/17 10:54:05;;;;;;;18.30;6.67;;;;;;;18.43;54.83;99467.53;1791055;79;20893;-58
2022/10/17 10:56:49;;;;;;;12.70;6.90;;;;;;;18.53;55.47;99465.98;1795470;79;21011;-58
2022/10/17 10:59:40;;;;;;;7.60;5.55;;;;;;;18.64;54.60;99459.20;1786318;79;20986;-57
2022/10/17 11:02:18;;;;;;;7.47;4.62;;;;;;;18.70;54.07;99470.17;1786008;79;21356;-59
2022/10/17 11:04:56;;;;;;;10.60;6.00;;;;;;;18.76;53.35;99474.38;1791313;79;20872;-58
2022/10/17 11:07:37;;;;;;;;;;;;;;;18.80;53.39;99471.30;1708079;80;21040;-58
2022/10/17 11:10:16;;;;;;;7.72;5.00;;;;;;;18.92;53.29;99466.12;1792095;78;20080;-62
2022/10/17 11:13:12;;;;;;;10.10;5.55;;;;;;;19.00;52.80;99468.09;1780136;78;21540;-58
2022/10/17 11:16:02;;;;;;;9.85;5.97;;;;;;;19.06;52.56;99461.41;1735689;82;21231;-59
2022/10/17 11:18:38;;;;;;;8.63;5.85;;;;;;;19.15;52.61;99463.39;1757719;79;20925;-58
2022/10/17 11:21:27;;;;;;;11.08;7.47;;;;;;;19.23;52.41;99463.43;1764971;80;20993;-58
2022/10/17 11:24:06;;;;;;;26.77;17.60;;;;;;;19.30;52.15;99469.22;1739923;80;20940;-59
2022/10/17 11:26:36;;;;;;;13.98;8.83;;;;;;;19.40;51.99;99462.75;1778615;79;20911;-56
2022/10/17 11:29:06;;;;;;;11.50;6.42;;;;;;;19.52;52.28;99467.05;1726659;82;21672;-58
2022/10/17 11:31:37;;;;;;;10.82;6.12;;;;;;;19.64;51.36;99458.53;1719838;82;21128;-58
2022/10/17 11:34:24;;;;;;;16.60;9.05;;;;;;;19.73;51.13;99455.86;1748724;79;21036;-57
2022/10/17 11:36:56;;;;;;;10.53;7.35;;;;;;;19.83;51.41;99454.22;1777268;79;20980;-59
2022/10/17 11:39:49;;;;;;;14.35;7.10;;;;;;;19.96;51.47;99445.13;1778028;78;20893;-59
2022/10/17 11:42:57;;;;;;;11.38;7.08;;;;;;;20.11;50.82;99447.96;1790133;79;21309;-60
2022/10/17 11:45:27;;;;;;;9.90;6.30;;;;;;;20.15;49.90;99451.09;1789076;79;21588;-59
2022/10/17 11:48:07;;;;;;;9.58;6.45;;;;;;;20.15;50.18;99450.28;1793213;79;21388;-59
2022/10/17 11:50:46;;;;;;;12.15;7.35;;;;;;;20.24;50.29;99447.84;1727891;80;20985;-58
2022/10/17 11:53:19;;;;;;;13.80;8.13;;;;;;;20.34;50.21;99451.63;1769050;80;21691;-58
2022/10/17 11:55:45;;;;;;;10.28;7.12;;;;;;;20.43;50.13;99453.78;1763389;80;21081;-57
2022/10/17 11:58:35;;;;;;;10.32;6.53;;;;;;;20.54;50.17;99457.56;1784608;79;20950;-59
2022/10/17 12:01:37;;;;;;;10.32;6.20;;;;;;;20.64;49.71;99453.13;1785342;79;20876;-59
2022/10/17 12:04:30;;;;;;;12.50;6.78;;;;;;;20.73;49.33;99452.02;1795689;79;21011;-59
2022/10/17 12:07:25;;;;;;;11.78;7.00;;;;;;;20.82;49.23;99446.58;1763886;79;21377;-59
2022/10/17 12:10:33;;;;;;;11.85;6.85;;;;;;;20.93;48.93;99447.84;1762109;80;22108;-59
2022/10/17 12:13:29;;;;;;;11.38;6.20;;;;;;;21.00;48.80;99443.50;1782863;80;21522;-58